Aviation Digital Data Service (ADDS)

Output produced by METARs form (2030 UTC 17 November 2019)
found at http://www.aviationweather.gov/metar/data/
 
TAPA 171900Z 08007KT 030V120 9999 FEW018 30/24 Q1007 NOSIG
TAPA 171800Z 07008KT 020V110 9999 VCSH SCT018 30/24 Q1007 NOSIG
TAPA 171700Z 09008KT 030V130 9999 SCT018 30/24 Q1009 NOSIG
TAF TAPA 171700Z 1718/1818 08006KT 9999 SCT018 
     PROB30 
     TEMPO 1718/1723 SHRA 
     PROB40 
     TEMPO 1723/1818 SHRA BKN015
       
TRPG 172000Z 10005KT 9999 SCT022 28/23 Q1009
TRPG 171900Z 10006KT 9999 SCT021 28/24 Q1009
TRPG 171800Z 09007KT 9999 FEW019 28/24 Q1009
TRPG 171700Z 09007KT 9999 FEW022 28/25 Q1009
TAF TRPG 171700Z 1718/1818 08006KT 9999 SCT018 
     PROB30 
     TEMPO 1718/1723 SHRA 
     PROB40 
     TEMPO 1723/1818 SHRA BKN015
       
TKPK 171900Z 03007KT 9999 SCT022 29/24 Q1007
TKPK 171800Z 05008KT 9999 FEW022 30/24 Q1008
TKPK 171700Z 05008KT 9999 FEW016 30/24 Q1008
TKPK 171720Z 1718/1818 07010KT P6SM SCT020 
     FM172200 VRB03KT P6SM SCT018 AMD NOT SKED 1802/1811
       
TKPN 172000Z 06007KT 9999 FEW018TCU Q1007
TKPN 171900Z 07006KT 9999 FEW018TCU Q1007
TKPN 171800Z 08007KT 9999 FEW018TCU Q1008
TKPN 171700Z 07010KT 9999 SCT018TCU Q1008
TAF TKPN 171700Z 1718/1818 08006KT 9999 SCT018 
     PROB30 
     TEMPO 1718/1723 SHRA 
     PROB40 
     TEMPO 1723/1818 SHRA BKN015
       
TQPF 172000Z 09006KT 9999 SCT020 29/22 Q1008
TQPF 171900Z 10008KT 9999 SCT018 29/22 Q1008
TQPF 171800Z 11008KT 9999 FEW018 29/22 Q1008
TQPF 171700Z 11008KT 9999 FEW018 28/22 Q1009
TAF TQPF 171700Z 1718/1818 09008KT 9999 SCT018 
     PROB30 
     TEMPO 1718/1723 SHRA 
     PROB40 
     TEMPO 1800/1818 SHRA BKN015
       
TUPJ 172000Z 10006KT 25SM VCSH 30/23 A2977 RMK Q1008 VIS40KM
TUPJ 171900Z 11006KT 25SM FEW016 30/24 A2977 RMK Q1008 VIS40KM
TUPJ 171800Z 07007KT 25SM FEW018 31/23 A2978 RMK Q1008 VIS40KM
TUPJ 171700Z 09006KT 25SM FEW018 30/23 A2979 RMK Q1008 VIS40KM
TAF TUPJ 171700Z 1718/1818 08007KT 9999 SCT018 
     PROB30 
     TEMPO 1718/1800 SHRA 
     PROB40 
     TEMPO 1800/1818 SHRA BKN015